• Join FlightAware (Why Join?)
  • Login
  • US Flag 
Rudolph Flight #1: Arrived! 
06:15AM EST


 

Airport Tracker/Info


-or-


 

Live Flight TrackerFlight Track Log ✈ KAP4751 ✈ 19-Jun-2013 ✈ TJSJ / SJU - TQPF / AXA

Flight Track Log - Related Links

Times and Time Zones

All times are in EDT time to prevent confusion due to time zone crossing. See the KAP4751 flight status page for this flight to view local times or setup timezone preferences in your user account.

Time Position Orientation Groundspeed Altitude Reporting Facility
EDT Latitude Longitude Course Direction KTS MPH feet Rate Location/Type
05:31PM 18.4333 -65.9667 90° East 110 127 1,000  Level San Juan Center
05:32PM 18.4333 -65.9500 90° East 110 127 1,800 660 Climbing San Juan Center
05:33PM 18.4333 -65.9167 90° East 110 127 2,400 600 Climbing San Juan Center
05:34PM 18.4333 -65.8833 90° East 110 127 3,000 540 Climbing San Juan Center
05:35PM 18.4333 -65.8500 90° East 120 138 3,600 480 Climbing San Juan Center
05:36PM 18.4333 -65.8167 90° East 110 127 4,000 480 Climbing San Juan Center
05:37PM 18.4333 -65.7833 90° East 120 138 4,600 540 Climbing San Juan Center
05:38PM 18.4333 -65.7333 90° East 130 150 5,100 480 Climbing San Juan Center
05:39PM 18.4333 -65.7000 90° East 150 173 5,600 540 Climbing San Juan Center
05:40PM 18.4333 -65.6667 90° East 140 161 6,200 540 Climbing San Juan Center
05:41PM 18.4333 -65.6167 90° East 120 138 6,700 360 Climbing San Juan Center
05:42PM 18.4333 -65.5833 90° East 150 173 7,000 120 Climbing San Juan Center
05:43PM 18.4333 -65.5333 90° East 170 196 7,000  Level San Juan Center
05:44PM 18.4333 -65.4833 90° East 160 184 7,000  Level San Juan Center
05:45PM 18.4167 -65.4333 109° East 160 184 7,000  Level San Juan Center
05:46PM 18.4167 -65.4000 90° East 160 184 7,000  Level San Juan Center
05:47PM 18.4167 -65.3500 90° East 160 184 7,000  Level San Juan Center
05:48PM 18.4167 -65.3000 90° East 170 196 7,000  Level San Juan Center
05:49PM 18.4167 -65.2500 90° East 160 184 7,000  Level San Juan Center
05:50PM 18.4333 -65.2000 71° East 160 184 7,000  Level San Juan Center
05:51PM 18.4167 -65.1500 109° East 160 184 7,000  Level San Juan Center
05:52PM 18.4167 -65.1000 90° East 160 184 7,000  Level San Juan Center
05:53PM 18.4167 -65.0667 90° East 160 184 7,000  Level San Juan Center
05:54PM 18.4167 -65.0167 90° East 160 184 7,000  Level San Juan Center
05:55PM 18.4167 -64.9667 90° East 160 184 7,000  Level San Juan Center
05:56PM 18.4167 -64.9167 90° East 160 184 7,000  Level San Juan Center
05:57PM 18.4167 -64.8667 90° East 160 184 7,000  Level San Juan Center
05:58PM 18.4167 -64.8167 90° East 160 184 7,000  Level San Juan Center
05:59PM 18.4167 -64.7833 90° East 160 184 7,000  Level San Juan Center
06:00PM 18.4167 -64.7333 90° East 160 184 7,000  Level San Juan Center
06:01PM 18.4000 -64.6833 109° East 150 173 7,000  Level San Juan Center
06:02PM 18.4000 -64.6333 90° East 160 184 7,000  Level San Juan Center
06:03PM 18.4000 -64.6000 90° East 160 184 7,000  Level San Juan Center
06:04PM 18.4000 -64.5500 90° East 150 173 7,000  Level San Juan Center
06:05PM 18.4000 -64.5000 90° East 160 184 7,000  Level San Juan Center
06:06PM 18.4000 -64.4500 90° East 160 184 7,000  Level San Juan Center
06:07PM 18.4000 -64.4167 90° East 150 173 7,000  Level San Juan Center
06:08PM 18.4000 -64.3667 90° East 150 173 7,000  Level San Juan Center
06:09PM 18.4000 -64.3167 90° East 150 173 7,000  Level San Juan Center
06:10PM 18.4000 -64.2833 90° East 150 173 7,000  Level San Juan Center
06:11PM 18.4000 -64.2333 90° East 140 161 7,000  Level San Juan Center
06:12PM 18.4000 -64.1833 90° East 140 161 7,000  Level San Juan Center
06:13PM 18.4000 -64.1500 90° East 140 161 7,000  Level San Juan Center
06:15PM 18.4000 -64.0667 90° East 150 173 7,000  Level San Juan Center
06:17PM 18.3833 -63.9833 102° East 140 161 7,000  Level San Juan Center
06:18PM 18.4000 -63.9333 71° East 160 184 7,000  Level San Juan Center
06:19PM 18.3833 -63.8833 109° East 150 173 7,000  Level San Juan Center
06:22PM 18.3834 -63.8284 90° East  Level FlightAware Approximate
06:29PM 18.3108 -63.5516 124° Southeast  Level FlightAware Approximate
06:30PM 18.2883 -63.5160 124° Southeast  Level FlightAware Approximate
06:31PM 18.2658 -63.4804 124° Southeast  Level FlightAware Approximate
06:32PM 18.2433 -63.4448 124° Southeast  Level FlightAware Approximate
06:33PM 18.2208 -63.4091 124° Southeast  Level FlightAware Approximate
06:34PM 18.1982 -63.3735 124° Southeast  Level FlightAware Approximate
06:35PM 18.1760 -63.3377 122° Southeast  Level FlightAware Approximate
06:36PM 18.1543 -63.3016 122° Southeast  Level FlightAware Approximate
06:37PM 18.1325 -63.2654 125° Southeast  Level FlightAware Approximate
06:38PM 18.1092 -63.2304 125° Southeast  Level FlightAware Approximate
06:39PM 18.0859 -63.1954 125° Southeast  Level FlightAware Approximate
06:40PM 18.0625 -63.1604 125° Southeast  Level FlightAware Approximate
06:41PM 18.0392 -63.1254 125° Southeast  Level FlightAware Approximate
06:42PM 18.0608 -63.1029 25° Northeast  Level FlightAware Approximate
06:43PM 18.0975 -63.0846 25° Northeast  Level FlightAware Approximate
06:44PM 18.1343 -63.0664 13° North  Level FlightAware Approximate
06:45PM 18.1738 -63.0565 13° North  Level FlightAware Approximate
06:46PM 18.2000 -63.0500 13° North  Level FlightAware Approximate
06:47PM 18.2048 -63.0551 13° North  Level Estimated
06:48PM 18.2000 -63.0500 13° North  Level FlightAware Approximate
06:49PM 18.2048 -63.0551 13° North  Level Estimated
06:50PM 18.2000 -63.0500 13° North  Level FlightAware Approximate
06:51PM 18.2048 -63.0551 13° North  Level Estimated
06:52PM 18.2000 -63.0500 13° North  Level FlightAware Approximate
06:53PM 18.2048 -63.0551 13° North  Level Estimated
06:54PM 18.2000 -63.0500 13° North  Level FlightAware Approximate
06:55PM 18.2048 -63.0551 13° North  Level Estimated
06:56PM 18.2000 -63.0500 13° North  Level FlightAware Approximate
06:57PM 18.2048 -63.0551 13° North  Level Estimated
06:58PM 18.2000 -63.0500 13° North  Level FlightAware Approximate
06:59PM 18.2048 -63.0551 13° North  Level Estimated
07:00PM 18.2000 -63.0500 13° North  Level FlightAware Approximate
07:01PM 18.2048 -63.0551 13° North  Level Estimated
07:02PM 18.2000 -63.0500 13° North  Level FlightAware Approximate
07:03PM 18.2048 -63.0551 13° North  Level Estimated